Aeroporto :
LOGIN :

Iscrizione | Disclaimer

   EN    FR    IT 

 










Sommario :    VFR   VFR Marginale   IFR   IFR Intensivo   IFR Molto Intensivo
Visibilità : 
Base nubi : 
>= 8 km
>= 3000ft
5 / 8 km
1000 / 3000 ft
1500m / 5 km
500 / 1000 ft
800 / 1500m
200 / 500 ft
< 800m
< 200 ft
Simboli :   Temporali  Nebbia  Neve Forte  Precipitazioni Forti  Vento > 20 kt
SIGMETs :   Varie  Temporali  Ghiacco  Turbolenza  Onda orograficha  Ceneri Vulcaniche






- Altitudine del aeroporto : 116 ft
- Codice IATA : ISC


EGHE - Scilly Isles / St Mary's

ULTIMO METAR :
  • 081050Z 34012KT 9999 FEW005 18/15 Q1022

METARs OBSOLETI :
  • 081020Z 36009KT 9999 FEW005 19/17 Q1022
  • 080950Z 36010KT 9999 BKN005 18/16 Q1022
  • 080920Z 36009KT 9999 FEW005 18/16 Q1022
  • 080850Z 34008KT 9999 FEW005 18/16 Q1022
  • 080820Z 34008KT CAVOK 18/16 Q1022

TAF TAF EGHE
Valido dal 08 a 09 ore il 08 a 18 ore UTC


080753Z 0809/0818 31006KT 9999 FEW005
TEMPO 0809/0818 BKN005
PROB30
TEMPO 0809/0818 0200 FG BKN001



MetMap, La meteo Aeronautica in un colpo d'occhio ! - Copyright ORBIFLY Dicembre 2007 - Disclaimer

ORBIFLY MET'MAP TEAM :

Programmazione e sviluppo : Alexandra Zaïnal
Concezione : Baudouin d'Aumeries
Aiuto per la programmazione : Marc-Olivier Méhu
Supporto tecnico e logistico : Manuel Goepfert
Aiuto per la traduzione : Arnaldo La Scala

Contatto : metmap@orbifly.com




FONTI E CREDITI :

   NOAA